sensor_id;sensor_type;location;lat;lon;timestamp;P1;durP1;ratioP1;P2;durP2;ratioP2
64060;SDS011;60147;55.036;73.242;2023-05-02T00:01:28;37.28;;;12.93;;
64060;SDS011;60147;55.036;73.242;2023-05-02T00:03:53;37.13;;;12.88;;
64060;SDS011;60147;55.036;73.242;2023-05-02T00:09:06;39.85;;;12.75;;
64060;SDS011;60147;55.036;73.242;2023-05-02T00:11:33;36.35;;;11.27;;
64060;SDS011;60147;55.036;73.242;2023-05-02T00:13:59;58.83;;;13.20;;
64060;SDS011;60147;55.036;73.242;2023-05-02T00:16:25;65.15;;;13.85;;
64060;SDS011;60147;55.036;73.242;2023-05-02T00:18:51;54.50;;;13.55;;
64060;SDS011;60147;55.036;73.242;2023-05-02T00:21:17;46.83;;;12.38;;
64060;SDS011;60147;55.036;73.242;2023-05-02T00:27:05;65.20;;;13.77;;
64060;SDS011;60147;55.036;73.242;2023-05-02T00:29:31;72.90;;;14.15;;
64060;SDS011;60147;55.036;73.242;2023-05-02T00:31:57;59.88;;;14.63;;
64060;SDS011;60147;55.036;73.242;2023-05-02T00:34:29;65.13;;;13.45;;
64060;SDS011;60147;55.036;73.242;2023-05-02T00:36:55;66.95;;;13.13;;
64060;SDS011;60147;55.036;73.242;2023-05-02T00:39:40;57.55;;;14.23;;
64060;SDS011;60147;55.036;73.242;2023-05-02T00:42:11;59.50;;;13.98;;
64060;SDS011;60147;55.036;73.242;2023-05-02T00:44:37;58.30;;;13.57;;
64060;SDS011;60147;55.036;73.242;2023-05-02T00:47:03;43.88;;;12.63;;
64060;SDS011;60147;55.036;73.242;2023-05-02T00:49:29;48.03;;;13.93;;
64060;SDS011;60147;55.036;73.242;2023-05-02T00:51:56;40.28;;;13.02;;
64060;SDS011;60147;55.036;73.242;2023-05-02T00:54:41;48.55;;;14.60;;
64060;SDS011;60147;55.036;73.242;2023-05-02T00:57:08;57.03;;;15.15;;
64060;SDS011;60147;55.036;73.242;2023-05-02T00:59:57;68.05;;;19.58;;
64060;SDS011;60147;55.036;73.242;2023-05-02T01:05:21;66.63;;;19.90;;
64060;SDS011;60147;55.036;73.242;2023-05-02T01:12:53;34.58;;;12.50;;
64060;SDS011;60147;55.036;73.242;2023-05-02T01:15:21;24.83;;;12.18;;
64060;SDS011;60147;55.036;73.242;2023-05-02T01:17:57;23.77;;;10.93;;
64060;SDS011;60147;55.036;73.242;2023-05-02T01:20:30;27.92;;;11.48;;
64060;SDS011;60147;55.036;73.242;2023-05-02T01:31:03;22.10;;;10.32;;
64060;SDS011;60147;55.036;73.242;2023-05-02T01:36:14;28.13;;;12.60;;
64060;SDS011;60147;55.036;73.242;2023-05-02T01:38:41;26.02;;;12.18;;
64060;SDS011;60147;55.036;73.242;2023-05-02T01:41:08;25.17;;;12.25;;
64060;SDS011;60147;55.036;73.242;2023-05-02T01:43:45;24.75;;;12.98;;
64060;SDS011;60147;55.036;73.242;2023-05-02T01:46:12;26.25;;;12.23;;
64060;SDS011;60147;55.036;73.242;2023-05-02T01:48:40;25.65;;;12.65;;
64060;SDS011;60147;55.036;73.242;2023-05-02T01:51:06;31.40;;;13.73;;
64060;SDS011;60147;55.036;73.242;2023-05-02T01:53:33;27.52;;;12.65;;
64060;SDS011;60147;55.036;73.242;2023-05-02T01:56:00;29.52;;;13.07;;
64060;SDS011;60147;55.036;73.242;2023-05-02T01:58:27;29.90;;;14.82;;
64060;SDS011;60147;55.036;73.242;2023-05-02T02:00:54;30.30;;;13.40;;
64060;SDS011;60147;55.036;73.242;2023-05-02T02:03:20;31.55;;;14.90;;
64060;SDS011;60147;55.036;73.242;2023-05-02T02:05:47;29.52;;;14.75;;
64060;SDS011;60147;55.036;73.242;2023-05-02T02:08:14;30.33;;;14.35;;
64060;SDS011;60147;55.036;73.242;2023-05-02T02:10:40;28.17;;;15.10;;
64060;SDS011;60147;55.036;73.242;2023-05-02T02:13:16;29.48;;;14.77;;
64060;SDS011;60147;55.036;73.242;2023-05-02T02:15:44;31.13;;;14.85;;
64060;SDS011;60147;55.036;73.242;2023-05-02T02:18:17;31.08;;;15.32;;
64060;SDS011;60147;55.036;73.242;2023-05-02T02:20:44;41.30;;;16.00;;
64060;SDS011;60147;55.036;73.242;2023-05-02T02:23:29;35.65;;;16.17;;
64060;SDS011;60147;55.036;73.242;2023-05-02T02:26:07;32.58;;;15.80;;
64060;SDS011;60147;55.036;73.242;2023-05-02T02:28:34;36.08;;;17.67;;
64060;SDS011;60147;55.036;73.242;2023-05-02T02:31:00;37.88;;;18.25;;
64060;SDS011;60147;55.036;73.242;2023-05-02T02:33:28;31.23;;;17.23;;
64060;SDS011;60147;55.036;73.242;2023-05-02T02:35:57;39.50;;;17.33;;
64060;SDS011;60147;55.036;73.242;2023-05-02T02:38:30;32.33;;;17.60;;
64060;SDS011;60147;55.036;73.242;2023-05-02T02:43:35;42.17;;;20.67;;
64060;SDS011;60147;55.036;73.242;2023-05-02T02:46:45;36.60;;;20.33;;
64060;SDS011;60147;55.036;73.242;2023-05-02T02:52:20;44.50;;;19.80;;
64060;SDS011;60147;55.036;73.242;2023-05-02T02:54:44;38.15;;;21.02;;
64060;SDS011;60147;55.036;73.242;2023-05-02T02:59:39;41.03;;;21.90;;
64060;SDS011;60147;55.036;73.242;2023-05-02T03:02:07;41.40;;;23.23;;
64060;SDS011;60147;55.036;73.242;2023-05-02T03:04:52;51.90;;;25.80;;
64060;SDS011;60147;55.036;73.242;2023-05-02T03:07:37;47.15;;;24.40;;
64060;SDS011;60147;55.036;73.242;2023-05-02T03:12:48;53.00;;;25.63;;
64060;SDS011;60147;55.036;73.242;2023-05-02T03:17:56;43.03;;;25.75;;
64060;SDS011;60147;55.036;73.242;2023-05-02T03:20:50;47.83;;;26.52;;
64060;SDS011;60147;55.036;73.242;2023-05-02T03:23:16;49.45;;;26.80;;
64060;SDS011;60147;55.036;73.242;2023-05-02T03:25:42;46.53;;;26.75;;
64060;SDS011;60147;55.036;73.242;2023-05-02T03:28:11;46.65;;;25.60;;
64060;SDS011;60147;55.036;73.242;2023-05-02T03:30:41;50.22;;;27.23;;
64060;SDS011;60147;55.036;73.242;2023-05-02T03:33:07;41.80;;;26.23;;
64060;SDS011;60147;55.036;73.242;2023-05-02T03:35:52;47.00;;;25.70;;
64060;SDS011;60147;55.036;73.242;2023-05-02T03:38:38;55.13;;;24.92;;
64060;SDS011;60147;55.036;73.242;2023-05-02T03:41:07;56.17;;;23.33;;
64060;SDS011;60147;55.036;73.242;2023-05-02T03:43:33;32.38;;;13.93;;
64060;SDS011;60147;55.036;73.242;2023-05-02T03:46:03;25.75;;;11.52;;
64060;SDS011;60147;55.036;73.242;2023-05-02T03:48:40;20.52;;;10.23;;
64060;SDS011;60147;55.036;73.242;2023-05-02T03:51:24;20.80;;;9.48;;
64060;SDS011;60147;55.036;73.242;2023-05-02T03:53:53;22.95;;;11.68;;
64060;SDS011;60147;55.036;73.242;2023-05-02T03:56:19;18.33;;;10.23;;
64060;SDS011;60147;55.036;73.242;2023-05-02T04:01:37;24.63;;;11.90;;
64060;SDS011;60147;55.036;73.242;2023-05-02T04:04:04;16.00;;;9.57;;
64060;SDS011;60147;55.036;73.242;2023-05-02T04:06:35;14.63;;;8.23;;
64060;SDS011;60147;55.036;73.242;2023-05-02T04:09:09;15.20;;;8.57;;
64060;SDS011;60147;55.036;73.242;2023-05-02T04:11:47;14.48;;;7.85;;
64060;SDS011;60147;55.036;73.242;2023-05-02T04:14:18;14.13;;;7.57;;
64060;SDS011;60147;55.036;73.242;2023-05-02T04:16:49;14.68;;;7.35;;
64060;SDS011;60147;55.036;73.242;2023-05-02T04:19:24;13.35;;;6.88;;
64060;SDS011;60147;55.036;73.242;2023-05-02T04:21:50;17.73;;;5.75;;
64060;SDS011;60147;55.036;73.242;2023-05-02T04:24:16;14.07;;;6.88;;
64060;SDS011;60147;55.036;73.242;2023-05-02T04:26:43;15.95;;;6.60;;
64060;SDS011;60147;55.036;73.242;2023-05-02T04:29:18;14.27;;;6.93;;
64060;SDS011;60147;55.036;73.242;2023-05-02T04:34:36;35.88;;;7.95;;
64060;SDS011;60147;55.036;73.242;2023-05-02T04:37:03;38.38;;;6.93;;
64060;SDS011;60147;55.036;73.242;2023-05-02T04:39:30;51.90;;;9.90;;
64060;SDS011;60147;55.036;73.242;2023-05-02T04:42:27;44.45;;;9.48;;
64060;SDS011;60147;55.036;73.242;2023-05-02T04:45:15;15.80;;;7.70;;
64060;SDS011;60147;55.036;73.242;2023-05-02T04:48:00;14.32;;;7.95;;
64060;SDS011;60147;55.036;73.242;2023-05-02T04:50:36;22.35;;;8.38;;
64060;SDS011;60147;55.036;73.242;2023-05-02T04:53:08;17.33;;;8.30;;
64060;SDS011;60147;55.036;73.242;2023-05-02T04:55:34;18.75;;;9.13;;
64060;SDS011;60147;55.036;73.242;2023-05-02T04:58:10;20.73;;;8.88;;
64060;SDS011;60147;55.036;73.242;2023-05-02T05:03:46;19.88;;;8.95;;
64060;SDS011;60147;55.036;73.242;2023-05-02T05:08:59;16.13;;;8.90;;
64060;SDS011;60147;55.036;73.242;2023-05-02T05:11:25;22.48;;;12.02;;
64060;SDS011;60147;55.036;73.242;2023-05-02T05:13:52;21.27;;;10.95;;
64060;SDS011;60147;55.036;73.242;2023-05-02T05:16:36;19.35;;;10.90;;
64060;SDS011;60147;55.036;73.242;2023-05-02T05:19:02;24.77;;;10.63;;
64060;SDS011;60147;55.036;73.242;2023-05-02T05:21:29;20.30;;;11.07;;
64060;SDS011;60147;55.036;73.242;2023-05-02T05:24:07;20.10;;;11.40;;
64060;SDS011;60147;55.036;73.242;2023-05-02T05:26:39;18.75;;;11.13;;
64060;SDS011;60147;55.036;73.242;2023-05-02T05:29:05;18.63;;;10.95;;
64060;SDS011;60147;55.036;73.242;2023-05-02T05:31:37;22.85;;;12.93;;
64060;SDS011;60147;55.036;73.242;2023-05-02T05:34:04;22.35;;;12.60;;
64060;SDS011;60147;55.036;73.242;2023-05-02T05:36:32;23.27;;;13.07;;
64060;SDS011;60147;55.036;73.242;2023-05-02T05:39:16;25.27;;;13.27;;
64060;SDS011;60147;55.036;73.242;2023-05-02T05:44:30;25.40;;;14.38;;
64060;SDS011;60147;55.036;73.242;2023-05-02T05:47:07;22.20;;;11.68;;
64060;SDS011;60147;55.036;73.242;2023-05-02T05:49:44;23.73;;;12.80;;
64060;SDS011;60147;55.036;73.242;2023-05-02T05:52:10;25.48;;;14.40;;
64060;SDS011;60147;55.036;73.242;2023-05-02T05:54:36;24.13;;;12.95;;
64060;SDS011;60147;55.036;73.242;2023-05-02T05:57:30;22.83;;;12.40;;
64060;SDS011;60147;55.036;73.242;2023-05-02T05:59:56;25.67;;;13.27;;
64060;SDS011;60147;55.036;73.242;2023-05-02T06:02:22;26.15;;;13.95;;
64060;SDS011;60147;55.036;73.242;2023-05-02T06:04:53;28.10;;;13.13;;
64060;SDS011;60147;55.036;73.242;2023-05-02T06:07:23;24.25;;;12.68;;
64060;SDS011;60147;55.036;73.242;2023-05-02T06:09:50;24.77;;;12.82;;
64060;SDS011;60147;55.036;73.242;2023-05-02T06:12:21;19.48;;;10.02;;
64060;SDS011;60147;55.036;73.242;2023-05-02T06:14:47;18.98;;;9.88;;
64060;SDS011;60147;55.036;73.242;2023-05-02T06:17:14;18.90;;;9.98;;
64060;SDS011;60147;55.036;73.242;2023-05-02T06:23:12;23.00;;;10.20;;
64060;SDS011;60147;55.036;73.242;2023-05-02T06:26:00;15.68;;;9.88;;
64060;SDS011;60147;55.036;73.242;2023-05-02T06:28:28;29.40;;;9.45;;
64060;SDS011;60147;55.036;73.242;2023-05-02T06:33:50;36.75;;;13.20;;
64060;SDS011;60147;55.036;73.242;2023-05-02T06:39:11;16.67;;;8.77;;
64060;SDS011;60147;55.036;73.242;2023-05-02T06:41:37;16.80;;;8.65;;
64060;SDS011;60147;55.036;73.242;2023-05-02T06:44:03;15.75;;;8.30;;
64060;SDS011;60147;55.036;73.242;2023-05-02T06:46:53;14.77;;;7.85;;
64060;SDS011;60147;55.036;73.242;2023-05-02T06:52:17;15.50;;;6.75;;
64060;SDS011;60147;55.036;73.242;2023-05-02T06:54:43;19.98;;;7.38;;
64060;SDS011;60147;55.036;73.242;2023-05-02T06:57:09;16.27;;;7.60;;
64060;SDS011;60147;55.036;73.242;2023-05-02T06:59:53;11.88;;;6.88;;
64060;SDS011;60147;55.036;73.242;2023-05-02T07:02:19;21.90;;;7.38;;
64060;SDS011;60147;55.036;73.242;2023-05-02T07:04:55;21.17;;;7.43;;
64060;SDS011;60147;55.036;73.242;2023-05-02T07:07:21;16.33;;;6.95;;
64060;SDS011;60147;55.036;73.242;2023-05-02T07:09:47;15.02;;;7.13;;
64060;SDS011;60147;55.036;73.242;2023-05-02T07:12:13;15.82;;;7.55;;
64060;SDS011;60147;55.036;73.242;2023-05-02T07:14:39;14.30;;;7.70;;
64060;SDS011;60147;55.036;73.242;2023-05-02T07:17:05;12.57;;;7.22;;
64060;SDS011;60147;55.036;73.242;2023-05-02T07:22:34;16.30;;;9.07;;
64060;SDS011;60147;55.036;73.242;2023-05-02T07:25:01;14.02;;;8.55;;
64060;SDS011;60147;55.036;73.242;2023-05-02T07:27:36;15.77;;;8.73;;
64060;SDS011;60147;55.036;73.242;2023-05-02T07:30:02;22.73;;;9.25;;
64060;SDS011;60147;55.036;73.242;2023-05-02T07:32:29;18.75;;;9.05;;
64060;SDS011;60147;55.036;73.242;2023-05-02T07:34:55;27.50;;;9.95;;
64060;SDS011;60147;55.036;73.242;2023-05-02T07:37:21;23.40;;;9.25;;
64060;SDS011;60147;55.036;73.242;2023-05-02T07:39:56;19.05;;;9.35;;
64060;SDS011;60147;55.036;73.242;2023-05-02T07:42:30;24.80;;;10.05;;
64060;SDS011;60147;55.036;73.242;2023-05-02T07:45:14;18.80;;;9.98;;
64060;SDS011;60147;55.036;73.242;2023-05-02T07:47:40;16.13;;;9.38;;
64060;SDS011;60147;55.036;73.242;2023-05-02T07:50:25;22.77;;;10.48;;
64060;SDS011;60147;55.036;73.242;2023-05-02T07:52:51;19.45;;;9.27;;
64060;SDS011;60147;55.036;73.242;2023-05-02T07:55:17;17.25;;;9.65;;
64060;SDS011;60147;55.036;73.242;2023-05-02T07:57:53;19.15;;;8.77;;
64060;SDS011;60147;55.036;73.242;2023-05-02T08:00:29;14.80;;;8.88;;
64060;SDS011;60147;55.036;73.242;2023-05-02T08:02:55;21.90;;;9.27;;
64060;SDS011;60147;55.036;73.242;2023-05-02T08:05:21;18.92;;;9.18;;
64060;SDS011;60147;55.036;73.242;2023-05-02T08:07:47;15.40;;;8.45;;
64060;SDS011;60147;55.036;73.242;2023-05-02T08:10:13;14.93;;;7.95;;
64060;SDS011;60147;55.036;73.242;2023-05-02T08:15:23;16.33;;;7.57;;
64060;SDS011;60147;55.036;73.242;2023-05-02T08:17:54;15.38;;;7.25;;
64060;SDS011;60147;55.036;73.242;2023-05-02T08:20:20;31.80;;;9.15;;
64060;SDS011;60147;55.036;73.242;2023-05-02T08:22:47;15.93;;;6.53;;
64060;SDS011;60147;55.036;73.242;2023-05-02T08:25:13;13.50;;;6.20;;
64060;SDS011;60147;55.036;73.242;2023-05-02T08:30:57;18.00;;;5.90;;
64060;SDS011;60147;55.036;73.242;2023-05-02T08:33:23;19.92;;;6.95;;
64060;SDS011;60147;55.036;73.242;2023-05-02T08:35:49;12.48;;;4.93;;
64060;SDS011;60147;55.036;73.242;2023-05-02T08:38:52;11.52;;;4.57;;
64060;SDS011;60147;55.036;73.242;2023-05-02T08:41:18;8.95;;;4.03;;
64060;SDS011;60147;55.036;73.242;2023-05-02T08:43:45;13.73;;;4.72;;
64060;SDS011;60147;55.036;73.242;2023-05-02T08:46:11;21.02;;;6.18;;
64060;SDS011;60147;55.036;73.242;2023-05-02T08:48:42;14.00;;;5.25;;
64060;SDS011;60147;55.036;73.242;2023-05-02T08:51:27;9.38;;;3.97;;
64060;SDS011;60147;55.036;73.242;2023-05-02T08:54:31;11.95;;;4.90;;
64060;SDS011;60147;55.036;73.242;2023-05-02T08:56:57;7.97;;;4.50;;
64060;SDS011;60147;55.036;73.242;2023-05-02T09:01:54;11.45;;;4.63;;
64060;SDS011;60147;55.036;73.242;2023-05-02T09:04:42;12.23;;;5.05;;
64060;SDS011;60147;55.036;73.242;2023-05-02T09:07:45;10.98;;;5.90;;
64060;SDS011;60147;55.036;73.242;2023-05-02T09:10:14;14.98;;;7.07;;
64060;SDS011;60147;55.036;73.242;2023-05-02T09:12:40;17.98;;;6.82;;
64060;SDS011;60147;55.036;73.242;2023-05-02T09:15:16;19.40;;;6.97;;
64060;SDS011;60147;55.036;73.242;2023-05-02T09:18:00;26.95;;;7.60;;
64060;SDS011;60147;55.036;73.242;2023-05-02T09:20:26;28.02;;;8.57;;
64060;SDS011;60147;55.036;73.242;2023-05-02T09:25:55;17.42;;;7.25;;
64060;SDS011;60147;55.036;73.242;2023-05-02T09:28:34;18.83;;;8.55;;
64060;SDS011;60147;55.036;73.242;2023-05-02T09:37:01;28.38;;;9.52;;
64060;SDS011;60147;55.036;73.242;2023-05-02T09:39:29;18.40;;;7.88;;
64060;SDS011;60147;55.036;73.242;2023-05-02T09:41:56;19.50;;;8.75;;
64060;SDS011;60147;55.036;73.242;2023-05-02T09:44:23;16.77;;;8.48;;
64060;SDS011;60147;55.036;73.242;2023-05-02T09:46:55;25.17;;;8.85;;
64060;SDS011;60147;55.036;73.242;2023-05-02T09:49:40;20.73;;;9.07;;
64060;SDS011;60147;55.036;73.242;2023-05-02T09:52:16;14.02;;;8.50;;
64060;SDS011;60147;55.036;73.242;2023-05-02T09:54:43;18.65;;;8.65;;
64060;SDS011;60147;55.036;73.242;2023-05-02T09:57:10;54.85;;;14.43;;
64060;SDS011;60147;55.036;73.242;2023-05-02T09:59:40;39.67;;;11.10;;
64060;SDS011;60147;55.036;73.242;2023-05-02T10:02:11;64.85;;;29.20;;
64060;SDS011;60147;55.036;73.242;2023-05-02T10:04:37;44.47;;;11.65;;
64060;SDS011;60147;55.036;73.242;2023-05-02T10:07:04;30.98;;;8.90;;
64060;SDS011;60147;55.036;73.242;2023-05-02T10:09:31;24.23;;;8.00;;
64060;SDS011;60147;55.036;73.242;2023-05-02T10:14:47;16.20;;;6.65;;
64060;SDS011;60147;55.036;73.242;2023-05-02T10:17:19;27.17;;;8.57;;
64060;SDS011;60147;55.036;73.242;2023-05-02T10:20:05;19.20;;;7.53;;
64060;SDS011;60147;55.036;73.242;2023-05-02T10:22:32;48.70;;;10.27;;
64060;SDS011;60147;55.036;73.242;2023-05-02T10:24:58;43.78;;;11.27;;
64060;SDS011;60147;55.036;73.242;2023-05-02T10:27:26;32.83;;;9.73;;
64060;SDS011;60147;55.036;73.242;2023-05-02T10:32:38;16.33;;;4.85;;
64060;SDS011;60147;55.036;73.242;2023-05-02T10:35:05;11.77;;;4.15;;
64060;SDS011;60147;55.036;73.242;2023-05-02T10:37:33;17.10;;;5.78;;
64060;SDS011;60147;55.036;73.242;2023-05-02T10:40:17;17.05;;;4.85;;
64060;SDS011;60147;55.036;73.242;2023-05-02T10:43:02;17.23;;;8.35;;
64060;SDS011;60147;55.036;73.242;2023-05-02T10:45:35;11.98;;;6.32;;
64060;SDS011;60147;55.036;73.242;2023-05-02T10:50:42;15.55;;;5.38;;
64060;SDS011;60147;55.036;73.242;2023-05-02T10:53:21;22.40;;;4.97;;
64060;SDS011;60147;55.036;73.242;2023-05-02T10:56:11;16.30;;;6.28;;
64060;SDS011;60147;55.036;73.242;2023-05-02T10:58:44;19.13;;;4.78;;
64060;SDS011;60147;55.036;73.242;2023-05-02T11:04:00;12.55;;;5.20;;
64060;SDS011;60147;55.036;73.242;2023-05-02T11:06:26;10.57;;;4.43;;
64060;SDS011;60147;55.036;73.242;2023-05-02T11:08:53;17.45;;;4.35;;
64060;SDS011;60147;55.036;73.242;2023-05-02T11:11:47;9.07;;;3.25;;
64060;SDS011;60147;55.036;73.242;2023-05-02T11:25:37;12.05;;;4.03;;
64060;SDS011;60147;55.036;73.242;2023-05-02T11:28:04;12.80;;;4.00;;
64060;SDS011;60147;55.036;73.242;2023-05-02T11:30:40;10.15;;;3.35;;
64060;SDS011;60147;55.036;73.242;2023-05-02T11:33:17;8.85;;;3.75;;
64060;SDS011;60147;55.036;73.242;2023-05-02T11:35:49;7.00;;;3.78;;
64060;SDS011;60147;55.036;73.242;2023-05-02T11:38:35;11.55;;;3.95;;
64060;SDS011;60147;55.036;73.242;2023-05-02T11:41:01;10.32;;;4.20;;
64060;SDS011;60147;55.036;73.242;2023-05-02T11:43:28;8.88;;;3.83;;
64060;SDS011;60147;55.036;73.242;2023-05-02T11:46:23;9.75;;;3.90;;
64060;SDS011;60147;55.036;73.242;2023-05-02T11:48:49;16.30;;;5.18;;
64060;SDS011;60147;55.036;73.242;2023-05-02T11:51:21;8.27;;;3.63;;
64060;SDS011;60147;55.036;73.242;2023-05-02T11:54:05;28.02;;;4.50;;
64060;SDS011;60147;55.036;73.242;2023-05-02T11:56:32;26.42;;;5.05;;
64060;SDS011;60147;55.036;73.242;2023-05-02T11:59:04;12.40;;;4.55;;
64060;SDS011;60147;55.036;73.242;2023-05-02T12:01:30;7.72;;;3.83;;
64060;SDS011;60147;55.036;73.242;2023-05-02T12:04:03;14.98;;;5.10;;
64060;SDS011;60147;55.036;73.242;2023-05-02T12:06:30;13.23;;;3.80;;
64060;SDS011;60147;55.036;73.242;2023-05-02T12:09:05;7.72;;;3.17;;
64060;SDS011;60147;55.036;73.242;2023-05-02T12:11:32;9.13;;;3.50;;
64060;SDS011;60147;55.036;73.242;2023-05-02T12:13:58;13.82;;;3.90;;
64060;SDS011;60147;55.036;73.242;2023-05-02T12:16:52;7.72;;;4.22;;
64060;SDS011;60147;55.036;73.242;2023-05-02T12:19:18;17.88;;;5.78;;
64060;SDS011;60147;55.036;73.242;2023-05-02T12:21:53;10.10;;;5.05;;
64060;SDS011;60147;55.036;73.242;2023-05-02T12:24:19;13.73;;;4.45;;
64060;SDS011;60147;55.036;73.242;2023-05-02T12:26:45;14.43;;;4.20;;
64060;SDS011;60147;55.036;73.242;2023-05-02T12:29:17;12.68;;;4.10;;
64060;SDS011;60147;55.036;73.242;2023-05-02T12:37:22;9.88;;;4.07;;
64060;SDS011;60147;55.036;73.242;2023-05-02T12:39:49;9.93;;;4.50;;
64060;SDS011;60147;55.036;73.242;2023-05-02T12:42:33;10.55;;;4.30;;
64060;SDS011;60147;55.036;73.242;2023-05-02T12:45:00;17.20;;;4.50;;
64060;SDS011;60147;55.036;73.242;2023-05-02T12:47:26;15.60;;;4.30;;
64060;SDS011;60147;55.036;73.242;2023-05-02T12:49:55;7.10;;;3.83;;
64060;SDS011;60147;55.036;73.242;2023-05-02T12:55:25;11.30;;;4.53;;
64060;SDS011;60147;55.036;73.242;2023-05-02T12:58:05;11.77;;;5.22;;
64060;SDS011;60147;55.036;73.242;2023-05-02T13:00:32;8.55;;;4.90;;
64060;SDS011;60147;55.036;73.242;2023-05-02T13:02:57;14.07;;;5.20;;
64060;SDS011;60147;55.036;73.242;2023-05-02T13:05:29;10.13;;;5.10;;
64060;SDS011;60147;55.036;73.242;2023-05-02T13:07:54;13.32;;;5.63;;
64060;SDS011;60147;55.036;73.242;2023-05-02T13:10:21;26.65;;;9.57;;
64060;SDS011;60147;55.036;73.242;2023-05-02T13:13:05;14.63;;;6.75;;
64060;SDS011;60147;55.036;73.242;2023-05-02T13:15:41;14.73;;;5.68;;
64060;SDS011;60147;55.036;73.242;2023-05-02T13:18:07;17.15;;;5.47;;
64060;SDS011;60147;55.036;73.242;2023-05-02T13:20:33;14.75;;;5.65;;
64060;SDS011;60147;55.036;73.242;2023-05-02T13:22:59;11.85;;;5.50;;
64060;SDS011;60147;55.036;73.242;2023-05-02T13:25:25;7.97;;;3.72;;
64060;SDS011;60147;55.036;73.242;2023-05-02T13:28:09;10.15;;;3.90;;
64060;SDS011;60147;55.036;73.242;2023-05-02T13:30:35;14.95;;;4.18;;
64060;SDS011;60147;55.036;73.242;2023-05-02T13:33:01;8.07;;;3.90;;
64060;SDS011;60147;55.036;73.242;2023-05-02T13:35:27;8.95;;;3.92;;
64060;SDS011;60147;55.036;73.242;2023-05-02T13:37:53;9.77;;;4.60;;
64060;SDS011;60147;55.036;73.242;2023-05-02T13:40:18;7.88;;;4.07;;
64060;SDS011;60147;55.036;73.242;2023-05-02T13:42:45;18.85;;;7.88;;
64060;SDS011;60147;55.036;73.242;2023-05-02T13:45:29;9.70;;;4.68;;
64060;SDS011;60147;55.036;73.242;2023-05-02T13:47:55;12.57;;;4.03;;
64060;SDS011;60147;55.036;73.242;2023-05-02T13:50:21;11.25;;;4.03;;
64060;SDS011;60147;55.036;73.242;2023-05-02T13:52:47;7.95;;;3.38;;
64060;SDS011;60147;55.036;73.242;2023-05-02T13:55:13;12.98;;;5.20;;
64060;SDS011;60147;55.036;73.242;2023-05-02T13:57:57;22.67;;;6.45;;
64060;SDS011;60147;55.036;73.242;2023-05-02T14:00:23;35.05;;;8.50;;
64060;SDS011;60147;55.036;73.242;2023-05-02T14:02:48;16.35;;;7.28;;
64060;SDS011;60147;55.036;73.242;2023-05-02T14:05:14;19.90;;;7.13;;
64060;SDS011;60147;55.036;73.242;2023-05-02T14:10:30;24.83;;;8.68;;
64060;SDS011;60147;55.036;73.242;2023-05-02T14:12:56;14.82;;;7.30;;
64060;SDS011;60147;55.036;73.242;2023-05-02T14:15:21;16.90;;;7.32;;
64060;SDS011;60147;55.036;73.242;2023-05-02T14:17:48;21.23;;;7.72;;
64060;SDS011;60147;55.036;73.242;2023-05-02T14:25:43;29.77;;;7.30;;
64060;SDS011;60147;55.036;73.242;2023-05-02T14:28:08;32.65;;;7.70;;
64060;SDS011;60147;55.036;73.242;2023-05-02T14:33:47;33.40;;;7.22;;
64060;SDS011;60147;55.036;73.242;2023-05-02T14:36:13;44.78;;;8.77;;
64060;SDS011;60147;55.036;73.242;2023-05-02T14:38:38;29.30;;;8.45;;
64060;SDS011;60147;55.036;73.242;2023-05-02T14:41:23;33.53;;;8.30;;
64060;SDS011;60147;55.036;73.242;2023-05-02T14:44:14;22.90;;;7.60;;
64060;SDS011;60147;55.036;73.242;2023-05-02T14:46:40;24.40;;;7.63;;
64060;SDS011;60147;55.036;73.242;2023-05-02T14:49:06;35.67;;;7.57;;
64060;SDS011;60147;55.036;73.242;2023-05-02T14:51:31;30.58;;;7.65;;
64060;SDS011;60147;55.036;73.242;2023-05-02T14:53:57;26.58;;;8.05;;
64060;SDS011;60147;55.036;73.242;2023-05-02T14:56:42;26.08;;;8.77;;
64060;SDS011;60147;55.036;73.242;2023-05-02T14:59:08;28.75;;;12.15;;
64060;SDS011;60147;55.036;73.242;2023-05-02T15:01:33;109.35;;;43.38;;
64060;SDS011;60147;55.036;73.242;2023-05-02T15:03:59;110.32;;;44.40;;
64060;SDS011;60147;55.036;73.242;2023-05-02T15:09:57;274.58;;;102.07;;
64060;SDS011;60147;55.036;73.242;2023-05-02T15:12:24;305.60;;;113.90;;
64060;SDS011;60147;55.036;73.242;2023-05-02T15:14:50;254.20;;;98.97;;
64060;SDS011;60147;55.036;73.242;2023-05-02T15:17:16;272.13;;;102.90;;
64060;SDS011;60147;55.036;73.242;2023-05-02T15:20:24;265.23;;;87.78;;
64060;SDS011;60147;55.036;73.242;2023-05-02T15:25:35;156.20;;;60.13;;
64060;SDS011;60147;55.036;73.242;2023-05-02T15:28:01;129.90;;;49.58;;
64060;SDS011;60147;55.036;73.242;2023-05-02T15:30:45;136.32;;;50.00;;
64060;SDS011;60147;55.036;73.242;2023-05-02T15:33:18;275.05;;;87.18;;
64060;SDS011;60147;55.036;73.242;2023-05-02T15:35:53;228.15;;;72.50;;
64060;SDS011;60147;55.036;73.242;2023-05-02T15:38:24;226.50;;;66.95;;
64060;SDS011;60147;55.036;73.242;2023-05-02T15:40:57;187.15;;;68.05;;
64060;SDS011;60147;55.036;73.242;2023-05-02T15:43:28;155.07;;;51.85;;
64060;SDS011;60147;55.036;73.242;2023-05-02T15:45:58;183.27;;;57.00;;
64060;SDS011;60147;55.036;73.242;2023-05-02T15:48:34;232.95;;;61.65;;
64060;SDS011;60147;55.036;73.242;2023-05-02T15:51:00;136.75;;;42.90;;
64060;SDS011;60147;55.036;73.242;2023-05-02T15:53:36;111.47;;;34.55;;
64060;SDS011;60147;55.036;73.242;2023-05-02T15:56:10;166.27;;;33.37;;
64060;SDS011;60147;55.036;73.242;2023-05-02T15:58:36;217.55;;;35.53;;
64060;SDS011;60147;55.036;73.242;2023-05-02T16:03:57;95.90;;;26.65;;
64060;SDS011;60147;55.036;73.242;2023-05-02T16:06:41;92.57;;;25.52;;
64060;SDS011;60147;55.036;73.242;2023-05-02T16:09:07;135.07;;;38.83;;
64060;SDS011;60147;55.036;73.242;2023-05-02T16:11:34;248.68;;;67.38;;
64060;SDS011;60147;55.036;73.242;2023-05-02T16:14:05;266.10;;;72.43;;
64060;SDS011;60147;55.036;73.242;2023-05-02T16:16:31;276.05;;;69.47;;
64060;SDS011;60147;55.036;73.242;2023-05-02T16:18:58;262.48;;;65.18;;
64060;SDS011;60147;55.036;73.242;2023-05-02T16:21:47;151.88;;;40.05;;
64060;SDS011;60147;55.036;73.242;2023-05-02T16:24:15;113.38;;;33.33;;
64060;SDS011;60147;55.036;73.242;2023-05-02T16:26:41;167.75;;;31.13;;
64060;SDS011;60147;55.036;73.242;2023-05-02T16:29:07;78.63;;;26.20;;
64060;SDS011;60147;55.036;73.242;2023-05-02T16:34:34;96.47;;;32.00;;
64060;SDS011;60147;55.036;73.242;2023-05-02T16:39:44;138.52;;;43.10;;
64060;SDS011;60147;55.036;73.242;2023-05-02T16:42:11;101.53;;;35.15;;
64060;SDS011;60147;55.036;73.242;2023-05-02T16:44:37;71.07;;;27.15;;
64060;SDS011;60147;55.036;73.242;2023-05-02T16:47:03;58.47;;;23.85;;
64060;SDS011;60147;55.036;73.242;2023-05-02T16:49:28;93.35;;;25.58;;
64060;SDS011;60147;55.036;73.242;2023-05-02T16:54:44;60.80;;;23.50;;
64060;SDS011;60147;55.036;73.242;2023-05-02T16:57:10;54.30;;;21.45;;
64060;SDS011;60147;55.036;73.242;2023-05-02T17:00:23;73.57;;;23.25;;
64060;SDS011;60147;55.036;73.242;2023-05-02T17:02:49;97.85;;;23.70;;
64060;SDS011;60147;55.036;73.242;2023-05-02T17:05:19;76.55;;;23.27;;